Pitman, Pennsylvania
Current Conditions -  °F | °C
As of 8:58 AM on Sunday 23 Nov 2014 (Local Time) from KMUI Reporting Station
Overcast Overcast  
Wind Chill: 37°   Ceiling: 10000
Heat Index: 37°   Visibility: 10mi
Dew Point: 26°   Wind: 1mph
Humidity: 64%   Direction: 140°SE
Pressure: 30.21"   Gusts: NA
Location:  40.71°N, 76.52°W
Report Text: KMUI 231358Z AUTO 14001KT 10SM OVC100 03/M04 A3021 RMK AO2 SLP238 T00271036 $
Loading
Personal Weather Stations






























Interactive Weather Map New forecast layout! Learn more

10-Day Weather Forecast

Advertisements
Track Severe Weather on mobile